sensor_id;sensor_type;location;lat;lon;timestamp;pressure;altitude;pressure_sealevel;temperature;humidity
33506;BME280;19843;51.040;13.782;2023-03-13T00:01:27;99613.47;;;9.58;79.38
33506;BME280;19843;51.040;13.782;2023-03-13T00:03:55;99604.19;;;9.51;79.69
33506;BME280;19843;51.040;13.782;2023-03-13T00:06:22;99619.06;;;9.55;79.19
33506;BME280;19843;51.040;13.782;2023-03-13T00:08:50;99608.63;;;9.63;79.06
33506;BME280;19843;51.040;13.782;2023-03-13T00:11:17;99616.13;;;9.58;78.97
33506;BME280;19843;51.040;13.782;2023-03-13T00:13:44;99606.41;;;9.57;79.16
33506;BME280;19843;51.040;13.782;2023-03-13T00:16:12;99607.00;;;9.60;78.99
33506;BME280;19843;51.040;13.782;2023-03-13T00:18:44;99609.34;;;9.54;79.21
33506;BME280;19843;51.040;13.782;2023-03-13T00:21:13;99608.59;;;9.52;79.23
33506;BME280;19843;51.040;13.782;2023-03-13T00:23:40;99607.59;;;9.53;79.40
33506;BME280;19843;51.040;13.782;2023-03-13T00:26:08;99611.31;;;9.63;78.83
33506;BME280;19843;51.040;13.782;2023-03-13T00:28:36;99606.41;;;9.57;79.01
33506;BME280;19843;51.040;13.782;2023-03-13T00:31:04;99610.56;;;9.61;78.54
33506;BME280;19843;51.040;13.782;2023-03-13T00:33:32;99608.03;;;9.71;78.17
33506;BME280;19843;51.040;13.782;2023-03-13T00:36:03;99607.78;;;9.74;78.05
33506;BME280;19843;51.040;13.782;2023-03-13T00:38:31;99606.50;;;9.79;77.96
33506;BME280;19843;51.040;13.782;2023-03-13T00:40:59;99609.28;;;9.78;77.86
33506;BME280;19843;51.040;13.782;2023-03-13T00:43:26;99617.56;;;9.75;77.87
33506;BME280;19843;51.040;13.782;2023-03-13T00:45:53;99615.09;;;9.72;77.89
33506;BME280;19843;51.040;13.782;2023-03-13T00:48:21;99609.56;;;9.86;76.74
33506;BME280;19843;51.040;13.782;2023-03-13T00:50:48;99607.00;;;9.96;76.48
33506;BME280;19843;51.040;13.782;2023-03-13T00:53:17;99610.41;;;9.87;76.58
33506;BME280;19843;51.040;13.782;2023-03-13T00:55:54;99612.34;;;9.85;76.12
33506;BME280;19843;51.040;13.782;2023-03-13T00:58:22;99604.47;;;10.06;75.43
33506;BME280;19843;51.040;13.782;2023-03-13T01:00:49;99606.28;;;10.05;75.10
33506;BME280;19843;51.040;13.782;2023-03-13T01:03:16;99603.88;;;10.02;75.55
33506;BME280;19843;51.040;13.782;2023-03-13T01:05:44;99601.53;;;9.86;76.30
33506;BME280;19843;51.040;13.782;2023-03-13T01:08:11;99603.47;;;9.84;76.46
33506;BME280;19843;51.040;13.782;2023-03-13T01:10:40;99597.84;;;9.87;75.98
33506;BME280;19843;51.040;13.782;2023-03-13T01:13:07;99592.28;;;9.90;75.49
33506;BME280;19843;51.040;13.782;2023-03-13T01:15:34;99585.81;;;9.81;75.93
33506;BME280;19843;51.040;13.782;2023-03-13T01:18:02;99589.22;;;9.83;75.80
33506;BME280;19843;51.040;13.782;2023-03-13T01:20:29;99582.63;;;9.88;75.19
33506;BME280;19843;51.040;13.782;2023-03-13T01:22:57;99571.34;;;9.84;75.27
33506;BME280;19843;51.040;13.782;2023-03-13T01:25:24;99578.53;;;9.95;74.75
33506;BME280;19843;51.040;13.782;2023-03-13T01:27:53;99577.19;;;9.89;75.03
33506;BME280;19843;51.040;13.782;2023-03-13T01:30:20;99576.72;;;9.95;74.27
33506;BME280;19843;51.040;13.782;2023-03-13T01:32:47;99566.94;;;9.94;74.18
33506;BME280;19843;51.040;13.782;2023-03-13T01:35:15;99570.16;;;9.99;73.80
33506;BME280;19843;51.040;13.782;2023-03-13T01:37:43;99567.69;;;9.96;73.76
33506;BME280;19843;51.040;13.782;2023-03-13T01:40:11;99561.25;;;9.99;73.67
33506;BME280;19843;51.040;13.782;2023-03-13T01:42:48;99564.16;;;9.96;73.52
33506;BME280;19843;51.040;13.782;2023-03-13T01:48:03;99558.69;;;9.86;74.06
33506;BME280;19843;51.040;13.782;2023-03-13T01:50:31;99559.03;;;9.81;73.82
33506;BME280;19843;51.040;13.782;2023-03-13T01:52:58;99555.16;;;9.86;73.57
33506;BME280;19843;51.040;13.782;2023-03-13T01:55:26;99547.09;;;9.74;73.98
33506;BME280;19843;51.040;13.782;2023-03-13T01:57:53;99548.69;;;9.77;74.04
33506;BME280;19843;51.040;13.782;2023-03-13T02:00:22;99553.06;;;9.78;74.06
33506;BME280;19843;51.040;13.782;2023-03-13T02:02:50;99544.06;;;9.79;73.77
33506;BME280;19843;51.040;13.782;2023-03-13T02:05:20;99541.38;;;9.79;73.64
33506;BME280;19843;51.040;13.782;2023-03-13T02:07:49;99543.72;;;9.83;73.27
33506;BME280;19843;51.040;13.782;2023-03-13T02:10:19;99532.38;;;9.91;73.00
33506;BME280;19843;51.040;13.782;2023-03-13T02:12:47;99530.06;;;9.87;73.09
33506;BME280;19843;51.040;13.782;2023-03-13T02:15:16;99535.66;;;9.72;73.73
33506;BME280;19843;51.040;13.782;2023-03-13T02:17:45;99527.81;;;9.58;74.43
33506;BME280;19843;51.040;13.782;2023-03-13T02:20:13;99518.59;;;9.62;74.29
33506;BME280;19843;51.040;13.782;2023-03-13T02:22:43;99513.47;;;9.59;74.34
33506;BME280;19843;51.040;13.782;2023-03-13T02:25:15;99520.50;;;9.49;74.71
33506;BME280;19843;51.040;13.782;2023-03-13T02:27:50;99508.53;;;9.30;75.84
33506;BME280;19843;51.040;13.782;2023-03-13T02:30:18;99519.56;;;9.26;76.00
33506;BME280;19843;51.040;13.782;2023-03-13T02:32:46;99512.63;;;9.23;76.10
33506;BME280;19843;51.040;13.782;2023-03-13T02:35:15;99523.78;;;9.17;76.68
33506;BME280;19843;51.040;13.782;2023-03-13T02:37:45;99513.97;;;9.17;76.55
33506;BME280;19843;51.040;13.782;2023-03-13T02:40:14;99516.31;;;9.22;76.38
33506;BME280;19843;51.040;13.782;2023-03-13T02:42:43;99516.75;;;9.16;76.82
33506;BME280;19843;51.040;13.782;2023-03-13T02:45:13;99510.22;;;9.20;76.79
33506;BME280;19843;51.040;13.782;2023-03-13T02:47:41;99517.16;;;9.23;76.75
33506;BME280;19843;51.040;13.782;2023-03-13T02:50:08;99508.31;;;9.33;76.43
33506;BME280;19843;51.040;13.782;2023-03-13T02:52:37;99506.69;;;9.31;77.03
33506;BME280;19843;51.040;13.782;2023-03-13T02:55:08;99502.13;;;9.44;76.29
33506;BME280;19843;51.040;13.782;2023-03-13T02:57:36;99511.38;;;9.51;76.02
33506;BME280;19843;51.040;13.782;2023-03-13T03:00:05;99515.03;;;9.50;76.39
33506;BME280;19843;51.040;13.782;2023-03-13T03:02:38;99506.19;;;9.61;75.57
33506;BME280;19843;51.040;13.782;2023-03-13T03:05:06;99510.19;;;9.67;75.56
33506;BME280;19843;51.040;13.782;2023-03-13T03:07:33;99516.28;;;9.69;75.42
33506;BME280;19843;51.040;13.782;2023-03-13T03:10:01;99512.53;;;9.71;75.42
33506;BME280;19843;51.040;13.782;2023-03-13T03:12:28;99506.94;;;9.74;74.99
33506;BME280;19843;51.040;13.782;2023-03-13T03:14:55;99510.09;;;9.79;75.05
33506;BME280;19843;51.040;13.782;2023-03-13T03:17:23;99507.66;;;9.88;74.81
33506;BME280;19843;51.040;13.782;2023-03-13T03:19:51;99501.72;;;9.84;74.63
33506;BME280;19843;51.040;13.782;2023-03-13T03:22:19;99499.41;;;9.79;75.12
33506;BME280;19843;51.040;13.782;2023-03-13T03:24:46;99492.13;;;9.93;74.24
33506;BME280;19843;51.040;13.782;2023-03-13T03:27:13;99487.34;;;9.85;74.43
33506;BME280;19843;51.040;13.782;2023-03-13T03:29:40;99496.75;;;9.91;74.19
33506;BME280;19843;51.040;13.782;2023-03-13T03:32:08;99483.34;;;9.91;74.26
33506;BME280;19843;51.040;13.782;2023-03-13T03:34:35;99485.28;;;9.77;74.48
33506;BME280;19843;51.040;13.782;2023-03-13T03:37:04;99470.91;;;9.78;74.44
33506;BME280;19843;51.040;13.782;2023-03-13T03:39:31;99471.63;;;9.69;74.89
33506;BME280;19843;51.040;13.782;2023-03-13T03:41:58;99463.84;;;9.66;75.05
33506;BME280;19843;51.040;13.782;2023-03-13T03:44:25;99460.19;;;9.67;74.82
33506;BME280;19843;51.040;13.782;2023-03-13T03:46:53;99463.09;;;9.53;75.78
33506;BME280;19843;51.040;13.782;2023-03-13T03:49:20;99444.50;;;9.62;75.19
33506;BME280;19843;51.040;13.782;2023-03-13T03:51:47;99453.88;;;9.68;75.07
33506;BME280;19843;51.040;13.782;2023-03-13T03:54:16;99445.84;;;9.68;74.77
33506;BME280;19843;51.040;13.782;2023-03-13T03:56:43;99437.19;;;9.65;75.00
33506;BME280;19843;51.040;13.782;2023-03-13T03:59:11;99428.31;;;9.64;75.28
33506;BME280;19843;51.040;13.782;2023-03-13T04:01:38;99426.75;;;9.61;75.20
33506;BME280;19843;51.040;13.782;2023-03-13T04:04:05;99419.91;;;9.57;75.36
33506;BME280;19843;51.040;13.782;2023-03-13T04:06:32;99421.28;;;9.63;75.33
33506;BME280;19843;51.040;13.782;2023-03-13T04:09:00;99421.63;;;9.47;75.68
33506;BME280;19843;51.040;13.782;2023-03-13T04:11:29;99413.47;;;9.49;75.75
33506;BME280;19843;51.040;13.782;2023-03-13T04:13:56;99410.56;;;9.40;75.80
33506;BME280;19843;51.040;13.782;2023-03-13T04:16:23;99401.91;;;9.37;76.11
33506;BME280;19843;51.040;13.782;2023-03-13T04:18:50;99394.25;;;9.32;76.23
33506;BME280;19843;51.040;13.782;2023-03-13T04:21:18;99392.28;;;9.23;76.68
33506;BME280;19843;51.040;13.782;2023-03-13T04:23:45;99403.34;;;9.18;77.22
33506;BME280;19843;51.040;13.782;2023-03-13T04:26:13;99397.34;;;9.15;77.61
33506;BME280;19843;51.040;13.782;2023-03-13T04:28:41;99399.53;;;9.10;77.96
33506;BME280;19843;51.040;13.782;2023-03-13T04:31:09;99386.41;;;9.07;78.12
33506;BME280;19843;51.040;13.782;2023-03-13T04:33:36;99379.34;;;9.06;78.26
33506;BME280;19843;51.040;13.782;2023-03-13T04:36:03;99390.69;;;9.09;78.20
33506;BME280;19843;51.040;13.782;2023-03-13T04:38:31;99372.56;;;9.13;78.23
33506;BME280;19843;51.040;13.782;2023-03-13T04:40:58;99374.28;;;9.14;78.21
33506;BME280;19843;51.040;13.782;2023-03-13T04:43:25;99366.34;;;9.12;78.06
33506;BME280;19843;51.040;13.782;2023-03-13T04:45:54;99361.50;;;9.06;78.42
33506;BME280;19843;51.040;13.782;2023-03-13T04:48:21;99354.56;;;9.15;77.87
33506;BME280;19843;51.040;13.782;2023-03-13T04:50:49;99343.13;;;9.13;78.11
33506;BME280;19843;51.040;13.782;2023-03-13T04:53:16;99346.81;;;9.23;77.30
33506;BME280;19843;51.040;13.782;2023-03-13T04:55:44;99337.56;;;9.05;78.21
33506;BME280;19843;51.040;13.782;2023-03-13T04:58:12;99336.22;;;9.10;77.86
33506;BME280;19843;51.040;13.782;2023-03-13T05:00:40;99327.81;;;9.15;77.77
33506;BME280;19843;51.040;13.782;2023-03-13T05:03:08;99322.84;;;9.22;77.67
33506;BME280;19843;51.040;13.782;2023-03-13T05:05:36;99329.66;;;9.26;77.53
33506;BME280;19843;51.040;13.782;2023-03-13T05:08:03;99320.69;;;9.15;77.88
33506;BME280;19843;51.040;13.782;2023-03-13T05:10:31;99313.72;;;9.13;78.13
33506;BME280;19843;51.040;13.782;2023-03-13T05:12:58;99312.50;;;9.06;78.47
33506;BME280;19843;51.040;13.782;2023-03-13T05:15:25;99307.16;;;9.17;78.20
33506;BME280;19843;51.040;13.782;2023-03-13T05:17:53;99298.66;;;9.12;78.25
33506;BME280;19843;51.040;13.782;2023-03-13T05:20:21;99299.03;;;9.18;78.08
33506;BME280;19843;51.040;13.782;2023-03-13T05:22:49;99298.91;;;9.20;78.17
33506;BME280;19843;51.040;13.782;2023-03-13T05:25:16;99293.31;;;9.23;78.11
33506;BME280;19843;51.040;13.782;2023-03-13T05:27:44;99282.38;;;9.26;78.31
33506;BME280;19843;51.040;13.782;2023-03-13T05:30:11;99273.38;;;9.27;78.13
33506;BME280;19843;51.040;13.782;2023-03-13T05:32:38;99266.19;;;9.39;77.28
33506;BME280;19843;51.040;13.782;2023-03-13T05:35:06;99265.84;;;9.32;77.52
33506;BME280;19843;51.040;13.782;2023-03-13T05:37:35;99267.31;;;9.25;77.67
33506;BME280;19843;51.040;13.782;2023-03-13T05:40:06;99264.75;;;9.24;77.68
33506;BME280;19843;51.040;13.782;2023-03-13T05:42:34;99259.66;;;9.20;77.55
33506;BME280;19843;51.040;13.782;2023-03-13T05:45:02;99262.22;;;9.11;78.29
33506;BME280;19843;51.040;13.782;2023-03-13T05:47:29;99258.56;;;9.12;78.20
33506;BME280;19843;51.040;13.782;2023-03-13T05:49:56;99262.22;;;9.11;78.49
33506;BME280;19843;51.040;13.782;2023-03-13T05:52:23;99260.59;;;9.08;78.48
33506;BME280;19843;51.040;13.782;2023-03-13T05:54:52;99244.56;;;9.08;78.67
33506;BME280;19843;51.040;13.782;2023-03-13T05:57:19;99235.56;;;9.09;78.83
33506;BME280;19843;51.040;13.782;2023-03-13T05:59:46;99243.22;;;9.14;78.58
33506;BME280;19843;51.040;13.782;2023-03-13T06:02:14;99227.44;;;9.22;78.54
33506;BME280;19843;51.040;13.782;2023-03-13T06:04:41;99231.31;;;9.18;78.68
33506;BME280;19843;51.040;13.782;2023-03-13T06:07:09;99229.13;;;9.23;78.70
33506;BME280;19843;51.040;13.782;2023-03-13T06:09:36;99219.66;;;9.19;78.94
33506;BME280;19843;51.040;13.782;2023-03-13T06:12:05;99216.72;;;9.33;78.45
33506;BME280;19843;51.040;13.782;2023-03-13T06:14:32;99202.09;;;9.37;78.09
33506;BME280;19843;51.040;13.782;2023-03-13T06:17:00;99201.72;;;9.42;77.95
33506;BME280;19843;51.040;13.782;2023-03-13T06:19:27;99198.22;;;9.41;78.01
33506;BME280;19843;51.040;13.782;2023-03-13T06:21:55;99199.91;;;9.54;77.68
33506;BME280;19843;51.040;13.782;2023-03-13T06:24:22;99226.16;;;9.49;77.74
33506;BME280;19843;51.040;13.782;2023-03-13T06:26:49;99211.19;;;9.57;77.55
33506;BME280;19843;51.040;13.782;2023-03-13T06:29:18;99206.94;;;9.55;77.34
33506;BME280;19843;51.040;13.782;2023-03-13T06:31:46;99194.63;;;9.64;77.44
33506;BME280;19843;51.040;13.782;2023-03-13T06:34:13;99187.28;;;9.77;77.33
33506;BME280;19843;51.040;13.782;2023-03-13T06:36:40;99182.06;;;9.75;77.04
33506;BME280;19843;51.040;13.782;2023-03-13T06:39:08;99178.16;;;9.79;76.78
33506;BME280;19843;51.040;13.782;2023-03-13T06:41:35;99178.16;;;9.79;76.75
33506;BME280;19843;51.040;13.782;2023-03-13T06:44:02;99177.69;;;9.74;77.06
33506;BME280;19843;51.040;13.782;2023-03-13T06:46:31;99164.31;;;9.74;77.30
33506;BME280;19843;51.040;13.782;2023-03-13T06:48:58;99157.47;;;9.81;77.06
33506;BME280;19843;51.040;13.782;2023-03-13T06:51:29;99159.03;;;9.84;76.68
33506;BME280;19843;51.040;13.782;2023-03-13T06:53:56;99160.72;;;9.85;76.55
33506;BME280;19843;51.040;13.782;2023-03-13T06:56:24;99155.69;;;9.92;76.10
33506;BME280;19843;51.040;13.782;2023-03-13T06:58:51;99154.06;;;10.00;75.56
33506;BME280;19843;51.040;13.782;2023-03-13T07:01:18;99149.66;;;10.11;75.25
33506;BME280;19843;51.040;13.782;2023-03-13T07:03:47;99149.72;;;10.20;74.68
33506;BME280;19843;51.040;13.782;2023-03-13T07:06:15;99152.28;;;10.22;74.90
33506;BME280;19843;51.040;13.782;2023-03-13T07:08:43;99143.13;;;10.24;74.93
33506;BME280;19843;51.040;13.782;2023-03-13T07:11:11;99147.00;;;10.32;75.04
33506;BME280;19843;51.040;13.782;2023-03-13T07:13:39;99143.59;;;10.30;74.84
33506;BME280;19843;51.040;13.782;2023-03-13T07:16:07;99144.75;;;10.37;74.52
33506;BME280;19843;51.040;13.782;2023-03-13T07:18:35;99137.50;;;10.28;75.20
33506;BME280;19843;51.040;13.782;2023-03-13T07:21:04;99133.78;;;10.40;74.93
33506;BME280;19843;51.040;13.782;2023-03-13T07:23:32;99127.44;;;10.41;75.03
33506;BME280;19843;51.040;13.782;2023-03-13T07:26:00;99122.09;;;10.41;74.90
33506;BME280;19843;51.040;13.782;2023-03-13T07:28:28;99108.28;;;10.45;75.02
33506;BME280;19843;51.040;13.782;2023-03-13T07:31:02;99120.84;;;10.45;75.84
33506;BME280;19843;51.040;13.782;2023-03-13T07:33:29;99115.94;;;10.50;76.03
33506;BME280;19843;51.040;13.782;2023-03-13T07:35:57;99107.34;;;10.56;76.43
33506;BME280;19843;51.040;13.782;2023-03-13T07:38:26;99098.75;;;10.62;77.04
33506;BME280;19843;51.040;13.782;2023-03-13T07:40:54;99100.63;;;10.72;77.65
33506;BME280;19843;51.040;13.782;2023-03-13T07:43:22;99095.00;;;10.75;80.22
33506;BME280;19843;51.040;13.782;2023-03-13T07:45:53;99091.06;;;10.79;80.38
33506;BME280;19843;51.040;13.782;2023-03-13T07:48:21;99087.69;;;10.77;81.49
33506;BME280;19843;51.040;13.782;2023-03-13T07:50:49;99078.94;;;10.75;83.19
33506;BME280;19843;51.040;13.782;2023-03-13T07:53:16;99067.78;;;10.79;83.26
33506;BME280;19843;51.040;13.782;2023-03-13T07:55:57;99070.50;;;10.89;83.26
33506;BME280;19843;51.040;13.782;2023-03-13T07:58:25;99065.66;;;10.83;83.93
33506;BME280;19843;51.040;13.782;2023-03-13T08:00:53;99065.25;;;10.78;84.17
33506;BME280;19843;51.040;13.782;2023-03-13T08:03:20;99052.97;;;10.85;84.68
33506;BME280;19843;51.040;13.782;2023-03-13T08:05:55;99055.22;;;10.80;85.29
33506;BME280;19843;51.040;13.782;2023-03-13T08:08:23;99054.69;;;10.86;84.54
33506;BME280;19843;51.040;13.782;2023-03-13T08:10:50;99046.16;;;10.71;85.42
33506;BME280;19843;51.040;13.782;2023-03-13T08:13:19;99059.97;;;10.66;86.46
33506;BME280;19843;51.040;13.782;2023-03-13T08:15:46;99063.78;;;10.64;86.74
33506;BME280;19843;51.040;13.782;2023-03-13T08:18:13;99064.63;;;10.64;86.80
33506;BME280;19843;51.040;13.782;2023-03-13T08:20:41;99077.41;;;10.51;88.50
33506;BME280;19843;51.040;13.782;2023-03-13T08:23:10;99085.03;;;10.56;87.87
33506;BME280;19843;51.040;13.782;2023-03-13T08:25:38;99091.81;;;10.50;88.42
33506;BME280;19843;51.040;13.782;2023-03-13T08:28:05;99085.84;;;10.47;88.07
33506;BME280;19843;51.040;13.782;2023-03-13T08:30:35;99099.53;;;10.43;89.08
33506;BME280;19843;51.040;13.782;2023-03-13T08:33:02;99100.66;;;10.41;89.18
33506;BME280;19843;51.040;13.782;2023-03-13T08:35:32;99093.56;;;10.40;88.89
33506;BME280;19843;51.040;13.782;2023-03-13T08:38:00;99100.53;;;10.42;88.35
33506;BME280;19843;51.040;13.782;2023-03-13T08:40:28;99101.38;;;10.43;89.15
33506;BME280;19843;51.040;13.782;2023-03-13T08:42:55;99096.25;;;10.40;88.89
33506;BME280;19843;51.040;13.782;2023-03-13T08:45:22;99093.56;;;10.40;88.79
33506;BME280;19843;51.040;13.782;2023-03-13T08:47:52;99098.25;;;10.38;88.96
33506;BME280;19843;51.040;13.782;2023-03-13T08:50:19;99107.44;;;10.45;88.19
33506;BME280;19843;51.040;13.782;2023-03-13T08:52:46;99096.00;;;10.43;89.16
33506;BME280;19843;51.040;13.782;2023-03-13T08:55:14;99091.84;;;10.60;88.00
33506;BME280;19843;51.040;13.782;2023-03-13T08:57:41;99088.22;;;10.71;87.59
33506;BME280;19843;51.040;13.782;2023-03-13T09:00:09;99096.78;;;10.64;87.02
33506;BME280;19843;51.040;13.782;2023-03-13T09:02:38;99087.63;;;10.67;86.48
33506;BME280;19843;51.040;13.782;2023-03-13T09:05:07;99069.97;;;10.64;87.45
33506;BME280;19843;51.040;13.782;2023-03-13T09:07:34;99064.81;;;10.73;86.69
33506;BME280;19843;51.040;13.782;2023-03-13T09:10:02;99051.84;;;10.87;86.37
33506;BME280;19843;51.040;13.782;2023-03-13T09:12:29;99056.97;;;11.00;85.77
33506;BME280;19843;51.040;13.782;2023-03-13T09:14:56;99062.50;;;11.18;85.31
33506;BME280;19843;51.040;13.782;2023-03-13T09:17:24;99044.00;;;11.35;83.81
33506;BME280;19843;51.040;13.782;2023-03-13T09:19:52;99043.88;;;11.46;83.21
33506;BME280;19843;51.040;13.782;2023-03-13T09:22:27;99036.94;;;11.53;82.75
33506;BME280;19843;51.040;13.782;2023-03-13T09:24:54;99047.25;;;11.58;82.10
33506;BME280;19843;51.040;13.782;2023-03-13T09:27:22;99042.72;;;11.68;81.30
33506;BME280;19843;51.040;13.782;2023-03-13T09:29:49;99041.00;;;11.86;81.14
33506;BME280;19843;51.040;13.782;2023-03-13T09:32:17;99048.66;;;11.81;81.20
33506;BME280;19843;51.040;13.782;2023-03-13T09:34:45;99058.13;;;11.85;80.59
33506;BME280;19843;51.040;13.782;2023-03-13T09:37:13;99051.47;;;11.89;80.59
33506;BME280;19843;51.040;13.782;2023-03-13T09:39:42;99056.00;;;11.89;80.71
33506;BME280;19843;51.040;13.782;2023-03-13T09:42:11;99055.44;;;11.95;81.68
33506;BME280;19843;51.040;13.782;2023-03-13T09:44:41;99065.16;;;11.86;82.81
33506;BME280;19843;51.040;13.782;2023-03-13T09:47:11;99073.97;;;11.79;85.53
33506;BME280;19843;51.040;13.782;2023-03-13T09:49:43;99063.78;;;11.73;86.36
33506;BME280;19843;51.040;13.782;2023-03-13T09:52:14;99060.09;;;11.74;86.35
33506;BME280;19843;51.040;13.782;2023-03-13T09:54:44;99047.25;;;11.77;86.70
33506;BME280;19843;51.040;13.782;2023-03-13T09:57:14;99041.44;;;11.91;86.01
33506;BME280;19843;51.040;13.782;2023-03-13T09:59:43;99028.94;;;12.10;86.55
33506;BME280;19843;51.040;13.782;2023-03-13T10:02:15;99036.84;;;12.21;85.91
33506;BME280;19843;51.040;13.782;2023-03-13T10:04:44;99020.13;;;12.27;84.81
33506;BME280;19843;51.040;13.782;2023-03-13T10:07:14;99029.09;;;12.46;83.88
33506;BME280;19843;51.040;13.782;2023-03-13T10:09:41;99011.19;;;12.64;82.91
33506;BME280;19843;51.040;13.782;2023-03-13T10:12:12;99009.13;;;12.76;83.16
33506;BME280;19843;51.040;13.782;2023-03-13T10:14:43;99012.50;;;12.78;82.06
33506;BME280;19843;51.040;13.782;2023-03-13T10:17:19;99017.75;;;12.80;82.21
33506;BME280;19843;51.040;13.782;2023-03-13T10:19:50;99015.75;;;12.82;82.63
33506;BME280;19843;51.040;13.782;2023-03-13T10:22:23;99008.97;;;12.78;81.71
33506;BME280;19843;51.040;13.782;2023-03-13T10:24:52;99003.16;;;12.82;82.87
33506;BME280;19843;51.040;13.782;2023-03-13T10:27:22;99005.69;;;12.84;83.21
33506;BME280;19843;51.040;13.782;2023-03-13T10:29:49;99001.53;;;12.89;82.83
33506;BME280;19843;51.040;13.782;2023-03-13T10:32:17;99003.16;;;13.00;82.96
33506;BME280;19843;51.040;13.782;2023-03-13T10:34:52;98993.56;;;13.15;82.88
33506;BME280;19843;51.040;13.782;2023-03-13T10:37:23;98996.03;;;13.27;82.86
33506;BME280;19843;51.040;13.782;2023-03-13T10:39:51;99006.13;;;13.43;81.62
33506;BME280;19843;51.040;13.782;2023-03-13T10:42:20;98998.06;;;13.69;79.41
33506;BME280;19843;51.040;13.782;2023-03-13T10:44:49;98990.09;;;13.85;77.67
33506;BME280;19843;51.040;13.782;2023-03-13T10:47:21;98998.66;;;14.07;77.25
33506;BME280;19843;51.040;13.782;2023-03-13T10:49:49;98995.34;;;14.13;77.88
33506;BME280;19843;51.040;13.782;2023-03-13T10:52:31;98995.06;;;14.24;76.62
33506;BME280;19843;51.040;13.782;2023-03-13T10:55:01;98995.72;;;14.18;77.16
33506;BME280;19843;51.040;13.782;2023-03-13T10:57:30;98999.59;;;14.24;76.45
33506;BME280;19843;51.040;13.782;2023-03-13T10:59:59;99002.13;;;14.25;75.14
33506;BME280;19843;51.040;13.782;2023-03-13T11:02:32;98986.31;;;14.30;75.44
33506;BME280;19843;51.040;13.782;2023-03-13T11:05:01;98976.97;;;14.43;74.73
33506;BME280;19843;51.040;13.782;2023-03-13T11:07:29;98993.84;;;14.53;74.84
33506;BME280;19843;51.040;13.782;2023-03-13T11:09:59;98991.56;;;14.66;74.18
33506;BME280;19843;51.040;13.782;2023-03-13T11:12:27;98987.38;;;14.80;74.46
33506;BME280;19843;51.040;13.782;2023-03-13T11:14:55;98995.50;;;14.88;74.72
33506;BME280;19843;51.040;13.782;2023-03-13T11:17:26;98990.97;;;14.97;72.21
33506;BME280;19843;51.040;13.782;2023-03-13T11:19:57;98988.31;;;15.13;73.56
33506;BME280;19843;51.040;13.782;2023-03-13T11:22:29;98985.94;;;15.10;73.12
33506;BME280;19843;51.040;13.782;2023-03-13T11:27:47;99004.31;;;15.07;72.75
33506;BME280;19843;51.040;13.782;2023-03-13T11:30:19;99003.97;;;15.10;72.95
33506;BME280;19843;51.040;13.782;2023-03-13T11:32:51;98991.00;;;15.21;73.73
33506;BME280;19843;51.040;13.782;2023-03-13T11:35:32;99002.66;;;15.22;74.15
33506;BME280;19843;51.040;13.782;2023-03-13T11:38:01;98998.59;;;15.01;74.03
33506;BME280;19843;51.040;13.782;2023-03-13T11:40:34;98989.13;;;15.06;74.58
33506;BME280;19843;51.040;13.782;2023-03-13T11:43:11;98998.91;;;14.90;75.46
33506;BME280;19843;51.040;13.782;2023-03-13T11:46:00;98993.63;;;14.80;74.86
33506;BME280;19843;51.040;13.782;2023-03-13T11:51:17;98999.31;;;14.69;74.03
33506;BME280;19843;51.040;13.782;2023-03-13T11:53:55;99006.06;;;14.73;74.31
33506;BME280;19843;51.040;13.782;2023-03-13T11:56:31;99003.72;;;14.70;73.43
33506;BME280;19843;51.040;13.782;2023-03-13T11:59:03;99001.56;;;14.74;72.85
33506;BME280;19843;51.040;13.782;2023-03-13T12:01:33;98991.25;;;14.77;73.30
33506;BME280;19843;51.040;13.782;2023-03-13T12:04:02;98996.00;;;14.83;72.82
33506;BME280;19843;51.040;13.782;2023-03-13T12:06:34;98990.56;;;14.67;73.78
33506;BME280;19843;51.040;13.782;2023-03-13T12:09:04;98978.59;;;14.78;73.18
33506;BME280;19843;51.040;13.782;2023-03-13T12:11:34;98989.22;;;14.71;73.36
33506;BME280;19843;51.040;13.782;2023-03-13T12:14:04;98978.06;;;14.66;73.92
33506;BME280;19843;51.040;13.782;2023-03-13T12:16:36;98974.00;;;14.62;74.07
33506;BME280;19843;51.040;13.782;2023-03-13T12:19:06;98967.94;;;14.60;74.05
33506;BME280;19843;51.040;13.782;2023-03-13T12:21:36;98964.28;;;14.77;73.96
33506;BME280;19843;51.040;13.782;2023-03-13T12:24:05;98963.63;;;14.83;74.36
33506;BME280;19843;51.040;13.782;2023-03-13T12:26:38;98956.34;;;14.76;73.58
33506;BME280;19843;51.040;13.782;2023-03-13T12:29:09;98933.25;;;14.81;73.80
33506;BME280;19843;51.040;13.782;2023-03-13T12:31:39;98924.69;;;15.02;73.25
33506;BME280;19843;51.040;13.782;2023-03-13T12:34:10;98927.41;;;15.11;72.68
33506;BME280;19843;51.040;13.782;2023-03-13T12:36:40;98933.13;;;15.16;72.27
33506;BME280;19843;51.040;13.782;2023-03-13T12:39:14;98916.09;;;15.32;71.85
33506;BME280;19843;51.040;13.782;2023-03-13T12:41:45;98912.69;;;15.46;70.88
33506;BME280;19843;51.040;13.782;2023-03-13T12:44:16;98903.19;;;15.66;71.29
33506;BME280;19843;51.040;13.782;2023-03-13T12:46:44;98899.31;;;15.69;70.31
33506;BME280;19843;51.040;13.782;2023-03-13T12:49:17;98897.28;;;15.88;69.95
33506;BME280;19843;51.040;13.782;2023-03-13T12:51:59;98890.16;;;15.95;69.68
33506;BME280;19843;51.040;13.782;2023-03-13T12:54:34;98885.63;;;15.87;68.58
33506;BME280;19843;51.040;13.782;2023-03-13T12:57:07;98885.91;;;16.00;68.79
33506;BME280;19843;51.040;13.782;2023-03-13T12:59:39;98882.53;;;15.98;68.29
33506;BME280;19843;51.040;13.782;2023-03-13T13:02:12;98887.41;;;16.11;68.43
33506;BME280;19843;51.040;13.782;2023-03-13T13:04:41;98880.78;;;16.14;67.38
33506;BME280;19843;51.040;13.782;2023-03-13T13:07:19;98886.72;;;16.17;67.75
33506;BME280;19843;51.040;13.782;2023-03-13T13:10:00;98899.50;;;16.23;67.87
33506;BME280;19843;51.040;13.782;2023-03-13T13:12:27;98883.19;;;16.08;67.17